Time;durP1;ratioP1;P1;durP2;ratioP2;P2;SDS_P1;SDS_P2;PMS_P1;PMS_P2;Temp;Humidity;BMP_temperature;BMP_pressure;BME280_temperature;BME280_humidity;BME280_pressure;Samples;Min_cycle;Max_cycle;Signal;HPM_P1;HPM_P2
2021/04/15 00:00:53;;;;;;;7.53;5.20;;;;;;;7.91;100.00;100496.63;5048142;28;20102;-69
2021/04/15 00:03:22;;;;;;;6.55;4.97;;;;;;;7.85;100.00;100497.84;5053737;28;20385;-69
2021/04/15 00:05:48;;;;;;;8.57;5.20;;;;;;;7.59;100.00;100460.44;5054609;28;20078;-69
2021/04/15 00:08:16;;;;;;;7.22;5.35;;;;;;;7.77;100.00;100489.72;5054266;28;20049;-69
2021/04/15 00:10:44;;;;;;;7.40;5.30;;;;;;;7.78;100.00;100491.38;5053299;28;20115;-69
2021/04/15 00:13:22;;;;;;;7.28;4.93;;;;;;;7.79;100.00;100491.25;5054294;28;20036;-69
2021/04/15 00:15:49;;;;;;;7.00;5.00;;;;;;;7.55;100.00;100446.78;5054990;28;20044;-68
2021/04/15 00:18:15;;;;;;;6.22;4.93;;;;;;;7.73;100.00;100465.59;5054268;28;20090;-69
2021/04/15 00:20:40;;;;;;;6.55;4.72;;;;;;;7.70;100.00;100465.81;5054347;28;20021;-69
2021/04/15 00:23:06;;;;;;;6.70;4.68;;;;;;;7.64;100.00;100441.91;5053065;28;20090;-69
2021/04/15 00:25:31;;;;;;;7.15;5.07;;;;;;;7.53;100.00;100433.03;5053979;28;20499;-69
2021/04/15 00:27:57;;;;;;;7.65;5.13;;;;;;;7.51;100.00;100431.44;5054468;28;20021;-69
2021/04/15 00:30:23;;;;;;;6.43;4.93;;;;;;;7.72;100.00;100443.03;5053932;28;20028;-69
2021/04/15 00:32:49;;;;;;;7.53;5.20;;;;;;;7.69;100.00;100424.97;5053979;28;20463;-69
2021/04/15 00:35:16;;;;;;;6.03;4.93;;;;;;;7.77;100.00;100451.41;5054168;28;20032;-69
2021/04/15 00:37:41;;;;;;;6.43;4.90;;;;;;;7.47;100.00;100422.16;5053963;28;20451;-69
2021/04/15 00:40:09;;;;;;;6.50;4.93;;;;;;;7.40;100.00;100413.06;5053829;28;20051;-69
2021/04/15 00:42:36;;;;;;;6.85;4.95;;;;;;;7.61;100.00;100455.97;5053917;28;20074;-68
2021/04/15 00:45:11;;;;;;;6.93;4.80;;;;;;;7.73;100.00;100460.38;5054072;28;20542;-68
2021/04/15 00:47:39;;;;;;;6.43;4.90;;;;;;;7.58;100.00;100443.97;5054087;28;20045;-69
2021/04/15 00:50:27;;;;;;;6.57;4.68;;;;;;;7.60;100.00;100430.00;5053797;28;20025;-69
2021/04/15 00:52:57;;;;;;;6.53;4.75;;;;;;;7.07;100.00;100328.34;5053830;28;20041;-68
2021/04/15 00:55:27;;;;;;;7.28;4.93;;;;;;;7.55;100.00;100396.38;5053981;28;20053;-69
2021/04/15 00:57:54;;;;;;;6.40;4.85;;;;;;;7.15;100.00;100328.66;5053987;28;20127;-69
2021/04/15 01:00:26;;;;;;;7.85;5.10;;;;;;;7.57;100.00;100413.63;5052195;28;20025;-68
2021/04/15 01:02:53;;;;;;;6.07;4.47;;;;;;;7.38;100.00;100378.44;5053329;28;20041;-70
2021/04/15 01:05:20;;;;;;;7.30;4.75;;;;;;;7.56;100.00;100430.22;5053630;28;20057;-68
2021/04/15 01:07:47;;;;;;;8.05;5.30;;;;;;;7.45;100.00;100426.63;5051962;28;20461;-68
2021/04/15 01:10:13;;;;;;;7.32;4.68;;;;;;;7.33;100.00;100410.88;5065532;28;20024;-69
2021/04/15 01:12:58;;;;;;;6.60;4.15;;;;;;;7.46;100.00;100444.78;5088829;28;20036;-69
2021/04/15 01:15:33;;;;;;;6.50;4.55;;;;;;;7.46;100.00;100454.38;5073283;28;20115;-69
2021/04/15 01:18:43;;;;;;;5.80;4.63;;;;;;;7.47;100.00;100463.88;5073756;28;20028;-69
2021/04/15 01:21:30;;;;;;;6.93;5.13;;;;;;;7.50;100.00;100461.06;5053539;28;20064;-69
2021/04/15 01:24:13;;;;;;;9.23;5.18;;;;;;;7.47;100.00;100461.28;5073118;28;20032;-69
2021/04/15 01:26:53;;;;;;;6.38;4.97;;;;;;;7.39;100.00;100474.81;5073249;28;20016;-69
2021/04/15 01:30:13;;;;;;;6.25;4.35;;;;;;;7.36;100.00;100463.72;5073377;28;20071;-68
2021/04/15 01:32:50;;;;;;;7.28;4.95;;;;;;;7.37;100.00;100461.03;5030840;28;20079;-68
2021/04/15 01:35:36;;;;;;;7.75;4.78;;;;;;;7.20;100.00;100433.47;5031159;28;20132;-69
2021/04/15 01:38:09;;;;;;;8.65;4.68;;;;;;;7.32;100.00;100478.75;5064046;28;20484;-69
2021/04/15 01:40:42;;;;;;;6.88;4.88;;;;;;;7.32;100.00;100487.41;5072806;28;20029;-68
2021/04/15 01:43:12;;;;;;;6.45;4.45;;;;;;;7.30;100.00;100473.63;5072163;28;20024;-68
2021/04/15 01:45:38;;;;;;;8.18;5.35;;;;;;;7.18;100.00;100450.97;5072656;28;20082;-68
2021/04/15 01:48:08;;;;;;;6.72;5.07;;;;;;;7.05;100.00;100424.00;5072708;28;20032;-68
2021/04/15 01:50:37;;;;;;;7.10;5.10;;;;;;;7.18;100.00;100456.16;5072750;28;20032;-68
2021/04/15 01:53:14;;;;;;;6.45;4.90;;;;;;;7.13;100.00;100447.00;5072470;28;20028;-68
2021/04/15 01:55:52;;;;;;;7.15;5.40;;;;;;;6.93;100.00;100424.81;5072895;28;20025;-68
2021/04/15 01:58:34;;;;;;;6.43;4.40;;;;;;;6.97;100.00;100423.69;5073165;28;20052;-68
2021/04/15 02:01:08;;;;;;;6.75;4.70;;;;;;;6.89;100.00;100412.94;5072650;28;20058;-68
2021/04/15 02:03:36;;;;;;;7.80;4.63;;;;;;;7.12;100.00;100438.34;5072748;28;20064;-68
2021/04/15 02:06:10;;;;;;;7.07;5.00;;;;;;;6.93;100.00;100406.59;5072489;28;20035;-68
2021/04/15 02:08:43;;;;;;;6.78;4.90;;;;;;;7.09;100.00;100438.53;5072188;28;20432;-68
2021/04/15 02:11:18;;;;;;;7.00;4.20;;;;;;;6.89;100.00;100402.50;5072409;28;20031;-68
2021/04/15 02:13:46;;;;;;;6.10;4.45;;;;;;;6.85;100.00;100410.53;5072209;28;20050;-68
2021/04/15 02:16:18;;;;;;;6.20;4.63;;;;;;;7.05;100.00;100437.03;5072662;28;20064;-68
2021/04/15 02:18:48;;;;;;;7.00;4.60;;;;;;;7.05;100.00;100422.28;5072608;28;20024;-68
2021/04/15 02:21:45;;;;;;;6.32;4.78;;;;;;;7.01;100.00;100439.00;5072488;28;20103;-68
2021/04/15 02:24:34;;;;;;;9.48;4.65;;;;;;;6.91;100.00;100419.69;5067768;28;20036;-68
2021/04/15 02:27:09;;;;;;;6.50;4.60;;;;;;;6.87;100.00;100405.19;5072288;28;20089;-69
2021/04/15 02:29:40;;;;;;;5.93;4.40;;;;;;;7.13;100.00;100442.63;5072294;28;20247;-69
2021/04/15 02:32:15;;;;;;;6.28;4.15;;;;;;;7.00;100.00;100400.03;5057567;28;20021;-68
2021/04/15 02:34:54;;;;;;;6.40;4.65;;;;;;;7.04;100.00;100406.72;5052172;28;20017;-67
2021/04/15 02:37:33;;;;;;;6.55;4.40;;;;;;;7.09;100.00;100417.69;5052324;28;20395;-68
2021/04/15 02:40:04;;;;;;;7.55;4.70;;;;;;;7.22;100.00;100447.25;5052382;28;20029;-68
2021/04/15 02:42:35;;;;;;;7.15;4.45;;;;;;;7.10;100.00;100448.03;5051289;28;20071;-68
2021/04/15 02:45:17;;;;;;;5.97;4.47;;;;;;;6.93;100.00;100443.91;5050221;28;20021;-68
2021/04/15 02:47:49;;;;;;;9.10;5.65;;;;;;;7.17;100.00;100472.75;5050363;28;20043;-67
2021/04/15 02:50:17;;;;;;;9.90;5.15;;;;;;;7.10;100.00;100461.88;5051431;28;20024;-68
2021/04/15 02:52:47;;;;;;;5.85;4.30;;;;;;;7.11;100.00;100473.16;5050419;28;20035;-68
2021/04/15 02:55:17;;;;;;;6.22;4.55;;;;;;;7.15;100.00;100481.59;5054913;28;20025;-67
2021/04/15 02:57:52;;;;;;;6.78;4.85;;;;;;;6.93;100.00;100437.84;5055883;28;20036;-67
2021/04/15 03:00:23;;;;;;;6.88;4.40;;;;;;;7.20;100.00;100467.34;5056234;28;20047;-68
2021/04/15 03:02:59;;;;;;;6.07;4.13;;;;;;;7.19;100.00;100470.91;5055841;28;20037;-68
2021/04/15 03:05:27;;;;;;;7.13;4.70;;;;;;;7.10;100.00;100474.91;5055808;28;20029;-67
2021/04/15 03:07:58;;;;;;;7.55;5.10;;;;;;;7.08;100.00;100496.78;5055752;28;20045;-67
2021/04/15 03:10:29;;;;;;;29.88;19.77;;;;;;;6.75;100.00;100464.16;5060456;28;20396;-68
2021/04/15 03:13:20;;;;;;;34.85;23.77;;;;;;;7.07;100.00;100497.75;5055844;28;20025;-68
2021/04/15 03:16:00;;;;;;;6.90;4.53;;;;;;;6.92;100.00;100468.28;5089310;28;20372;-68
2021/04/15 03:18:52;;;;;;;6.07;3.95;;;;;;;7.06;100.00;100509.09;5075546;28;20036;-68
2021/04/15 03:21:25;;;;;;;6.07;4.43;;;;;;;6.80;100.00;100477.69;5074453;28;20024;-67
2021/04/15 03:24:06;;;;;;;9.30;4.40;;;;;;;7.07;100.00;100502.94;5072537;28;20038;-68
2021/04/15 03:26:59;;;;;;;5.28;3.85;;;;;;;7.13;100.00;100510.38;5054604;28;20044;-68
2021/04/15 03:29:33;;;;;;;7.43;4.63;;;;;;;7.19;100.00;100499.56;5053404;28;20029;-68
2021/04/15 03:32:20;;;;;;;6.13;3.97;;;;;;;7.16;100.00;100512.81;5054097;28;20024;-68
2021/04/15 03:35:04;;;;;;;6.70;4.38;;;;;;;6.92;100.00;100477.84;5054248;28;20068;-68
2021/04/15 03:37:39;;;;;;;6.40;4.07;;;;;;;7.08;100.00;100520.25;5054380;28;20108;-68
2021/04/15 03:40:22;;;;;;;6.82;4.18;;;;;;;6.96;100.00;100489.78;5054270;28;20056;-68
2021/04/15 03:42:54;;;;;;;6.70;4.50;;;;;;;7.12;100.00;100524.38;5055134;28;20116;-68
2021/04/15 03:45:29;;;;;;;6.13;4.30;;;;;;;7.06;100.00;100514.31;5055093;28;20028;-68
2021/04/15 03:48:01;;;;;;;12.32;4.95;;;;;;;7.12;100.00;100518.28;5055281;28;20025;-68
2021/04/15 03:50:59;;;;;;;6.25;4.15;;;;;;;7.22;100.00;100525.44;5055141;28;20040;-68
2021/04/15 03:53:44;;;;;;;7.30;4.85;;;;;;;7.23;100.00;100527.13;5045411;28;20075;-68
2021/04/15 03:56:18;;;;;;;7.82;4.68;;;;;;;7.36;100.00;100518.47;5055115;28;20059;-68
2021/04/15 03:58:48;;;;;;;10.40;5.30;;;;;;;7.14;100.00;100482.53;5053812;28;20047;-68
2021/04/15 04:01:24;;;;;;;8.85;5.53;;;;;;;7.38;100.00;100527.06;5054807;28;20107;-68
2021/04/15 04:04:07;;;;;;;8.60;4.55;;;;;;;7.33;100.00;100520.38;5053217;28;20064;-68
2021/04/15 04:06:38;;;;;;;9.10;5.22;;;;;;;7.12;100.00;100495.69;5053850;28;20021;-67
2021/04/15 04:09:11;;;;;;;5.78;3.85;;;;;;;7.16;100.00;100504.16;5055189;28;20049;-68
2021/04/15 04:11:38;;;;;;;10.70;4.72;;;;;;;7.13;100.00;100515.59;5054850;28;20128;-68
2021/04/15 04:14:42;;;;;;;6.25;4.30;;;;;;;7.37;100.00;100541.03;5054280;28;20071;-68
2021/04/15 04:17:14;;;;;;;25.92;18.52;;;;;;;7.42;100.00;100541.56;5023424;28;20120;-68
2021/04/15 04:19:49;;;;;;;46.22;35.83;;;;;;;7.32;100.00;100515.25;5054602;28;20500;-68
2021/04/15 04:22:37;;;;;;;18.48;15.00;;;;;;;7.52;100.00;100547.84;5053014;28;20504;-68
2021/04/15 04:25:26;;;;;;;8.77;6.32;;;;;;;7.37;100.00;100517.56;5054189;28;20040;-68
2021/04/15 04:27:54;;;;;;;28.30;18.75;;;;;;;7.61;100.00;100564.69;5054194;28;20028;-68
2021/04/15 04:30:28;;;;;;;25.42;16.85;;;;;;;7.63;100.00;100571.50;5054233;28;20029;-68
2021/04/15 04:32:58;;;;;;;10.77;8.43;;;;;;;7.61;100.00;100564.69;5054050;28;20032;-68
2021/04/15 04:35:29;;;;;;;11.65;7.05;;;;;;;7.07;100.00;100495.97;5054056;28;20035;-68
2021/04/15 04:37:57;;;;;;;8.23;5.32;;;;;;;7.45;100.00;100583.09;5054435;28;20056;-68
2021/04/15 04:40:29;;;;;;;7.65;4.72;;;;;;;7.29;100.00;100555.41;5053950;28;20028;-68
2021/04/15 04:42:57;;;;;;;6.97;5.28;;;;;;;7.45;100.00;100599.56;5053853;28;20017;-68
2021/04/15 04:45:23;;;;;;;10.93;8.90;;;;;;;7.48;100.00;100594.16;5053649;28;20404;-68
2021/04/15 04:48:13;;;;;;;7.85;6.38;;;;;;;7.52;100.00;100594.81;5053525;28;20079;-68
2021/04/15 04:50:41;;;;;;;9.75;5.78;;;;;;;7.56;100.00;100593.69;5053947;28;20102;-68
2021/04/15 04:53:12;;;;;;;6.68;4.55;;;;;;;7.28;100.00;100550.28;5053486;28;20028;-68
2021/04/15 04:55:42;;;;;;;7.22;4.88;;;;;;;7.60;100.00;100603.00;5053672;28;20052;-68
2021/04/15 04:58:11;;;;;;;7.97;6.22;;;;;;;7.67;100.00;100593.84;5053192;28;20025;-68
2021/04/15 05:00:46;;;;;;;7.30;4.63;;;;;;;7.57;100.00;100577.09;5053736;28;20107;-68
2021/04/15 05:03:18;;;;;;;8.13;4.95;;;;;;;7.53;100.00;100570.41;5053640;28;20029;-68
2021/04/15 05:05:43;;;;;;;6.40;4.65;;;;;;;7.57;100.00;100579.72;5053620;28;20514;-68
2021/04/15 05:08:15;;;;;;;7.70;5.03;;;;;;;7.79;100.00;100616.50;5053318;28;20048;-68
2021/04/15 05:10:50;;;;;;;6.28;4.43;;;;;;;7.79;100.00;100613.91;5053587;28;20037;-68
2021/04/15 05:13:23;;;;;;;6.50;4.22;;;;;;;7.75;100.00;100612.41;5053968;28;20067;-68
2021/04/15 05:15:49;;;;;;;6.30;4.38;;;;;;;7.63;100.00;100584.53;5053039;28;20548;-68
2021/04/15 05:18:17;;;;;;;6.20;4.50;;;;;;;7.60;100.00;100592.56;5053127;28;20055;-68
2021/04/15 05:20:43;;;;;;;5.57;4.00;;;;;;;7.72;100.00;100617.00;5053615;28;20025;-68
2021/04/15 05:23:38;;;;;;;10.98;5.63;;;;;;;7.77;100.00;100628.84;5053215;28;20408;-68
2021/04/15 05:26:18;;;;;;;7.40;5.22;;;;;;;7.78;100.00;100596.56;5053063;28;20031;-68
2021/04/15 05:28:47;;;;;;;8.10;4.40;;;;;;;7.93;100.00;100612.16;5053423;28;20065;-68
2021/04/15 05:31:16;;;;;;;6.32;4.70;;;;;;;7.87;100.00;100618.63;5053273;28;20108;-68
2021/04/15 05:33:42;;;;;;;7.63;4.57;;;;;;;7.67;100.00;100591.22;5052873;28;20056;-68
2021/04/15 05:36:10;;;;;;;9.25;6.78;;;;;;;7.57;100.00;100569.28;5053143;28;20067;-68
2021/04/15 05:38:48;;;;;;;10.98;7.70;;;;;;;7.93;100.00;100631.28;5052713;28;20071;-68
2021/04/15 05:41:22;;;;;;;7.55;4.95;;;;;;;8.05;100.00;100632.25;5051960;28;20041;-65
2021/04/15 05:43:50;;;;;;;9.30;4.68;;;;;;;7.93;100.00;100584.31;5052782;28;20052;-68
2021/04/15 05:46:21;;;;;;;6.15;4.45;;;;;;;7.86;100.00;100583.00;5052771;28;20049;-68
2021/04/15 05:48:49;;;;;;;9.77;6.22;;;;;;;7.93;100.00;100591.28;5053333;28;20025;-68
2021/04/15 05:51:22;;;;;;;7.03;5.07;;;;;;;8.21;100.00;100609.41;5052523;28;20025;-68
2021/04/15 05:53:53;;;;;;;6.93;5.25;;;;;;;8.18;100.00;100604.41;5052682;28;20021;-68
2021/04/15 05:56:24;;;;;;;7.18;4.65;;;;;;;8.37;100.00;100618.81;5052644;28;20488;-68
2021/04/15 05:59:01;;;;;;;7.15;5.72;;;;;;;8.35;100.00;100618.13;5052408;28;20385;-68
2021/04/15 06:01:41;;;;;;;6.53;4.35;;;;;;;8.04;100.00;100591.44;5052824;28;20123;-68
2021/04/15 06:04:33;;;;;;;9.02;5.35;;;;;;;8.32;100.00;100631.38;5051514;28;20029;-69
2021/04/15 06:07:02;;;;;;;7.40;5.88;;;;;;;8.17;100.00;100597.50;5051966;28;20137;-67
2021/04/15 06:09:28;;;;;;;7.30;5.18;;;;;;;7.85;100.00;100533.56;5051434;28;20037;-68
2021/04/15 06:12:03;;;;;;;7.35;5.20;;;;;;;8.42;100.00;100622.00;5052572;28;20040;-68
2021/04/15 06:14:54;;;;;;;6.43;4.75;;;;;;;8.49;100.00;100613.66;5052304;28;20029;-68
2021/04/15 06:17:25;;;;;;;10.70;8.38;;;;;;;8.63;100.00;100620.56;5052688;28;20109;-67
2021/04/15 06:20:13;;;;;;;7.65;5.72;;;;;;;8.52;100.00;100591.72;5051956;28;20025;-68
2021/04/15 06:22:43;;;;;;;20.27;12.90;;;;;;;8.81;100.00;100621.09;5052527;28;20036;-67
2021/04/15 06:25:28;;;;;;;7.28;5.18;;;;;;;8.86;100.00;100608.53;5052208;28;20029;-68
2021/04/15 06:28:00;;;;;;;9.65;7.65;;;;;;;8.80;100.00;100584.59;5046988;28;20468;-67
2021/04/15 06:30:38;;;;;;;20.45;18.48;;;;;;;9.15;100.00;100610.91;5046285;28;20029;-68
2021/04/15 06:33:11;;;;;;;8.07;5.25;;;;;;;9.00;100.00;100584.03;5045177;28;20192;-67
2021/04/15 06:35:37;;;;;;;6.25;4.40;;;;;;;9.10;100.00;100589.47;5047173;28;20472;-68
2021/04/15 06:38:32;;;;;;;5.45;3.90;;;;;;;8.68;100.00;100539.25;5046834;28;20021;-71
2021/04/15 06:41:13;;;;;;;9.60;6.70;;;;;;;9.34;100.00;100616.47;5043450;28;20041;-68
2021/04/15 06:43:50;;;;;;;;;;;;;;;9.45;100.00;100613.13;5044146;28;20029;-68
2021/04/15 06:46:41;;;;;;;25.42;15.73;;;;;;;9.63;100.00;100614.41;5044977;28;20293;-68
2021/04/15 06:49:29;;;;;;;17.88;11.68;;;;;;;9.75;100.00;100614.44;5040374;28;20107;-67
2021/04/15 06:52:10;;;;;;;36.15;21.05;;;;;;;9.95;100.00;100616.44;5042153;28;20560;-67
2021/04/15 06:54:47;;;;;;;28.42;17.10;;;;;;;10.33;100.00;100612.81;5046454;28;20025;-67
2021/04/15 06:57:52;;;;;;;8.57;5.93;;;;;;;10.64;100.00;100567.56;5046734;28;20095;-68
2021/04/15 07:00:33;;;;;;;11.20;9.60;;;;;;;11.16;100.00;100620.34;5041111;28;20462;-68
2021/04/15 07:03:25;;;;;;;5.70;4.38;;;;;;;11.08;100.00;100586.03;5044329;28;20078;-70
2021/04/15 07:05:56;;;;;;;6.63;3.70;;;;;;;10.99;100.00;100592.81;5046123;28;20036;-68
2021/04/15 07:08:47;;;;;;;6.40;3.83;;;;;;;11.02;100.00;100621.44;5044883;28;20492;-68
2021/04/15 07:11:31;;;;;;;6.65;5.28;;;;;;;10.55;100.00;100619.84;5037106;28;20055;-67
2021/04/15 07:14:18;;;;;;;7.32;3.97;;;;;;;10.64;100.00;100613.91;5046914;28;20504;-67
2021/04/15 07:16:46;;;;;;;8.57;6.82;;;;;;;11.13;100.00;100619.75;5043823;28;20498;-67
2021/04/15 07:19:24;;;;;;;5.40;4.13;;;;;;;11.38;100.00;100614.25;5046007;28;20036;-67
2021/04/15 07:22:11;;;;;;;6.22;3.88;;;;;;;11.76;100.00;100621.66;5046262;28;20123;-67
2021/04/15 07:24:54;;;;;;;4.07;3.00;;;;;;;11.97;100.00;100621.72;5046491;28;20075;-67
2021/04/15 07:27:45;;;;;;;5.03;3.33;;;;;;;12.27;100.00;100620.16;5046496;28;20021;-69
2021/04/15 07:30:25;;;;;;;;;;;;;;;12.14;100.00;100622.13;5046809;28;20037;-68
2021/04/15 07:33:12;;;;;;;5.40;4.03;;;;;;;12.22;100.00;100622.34;5045739;28;19917;-69
2021/04/15 07:36:07;;;;;;;5.05;3.47;;;;;;;12.23;100.00;100580.16;5046559;28;20496;-67
2021/04/15 07:38:39;;;;;;;4.55;3.10;;;;;;;12.46;100.00;100609.78;5044702;28;20028;-68
2021/04/15 07:41:19;;;;;;;4.72;3.20;;;;;;;12.03;100.00;100605.47;5047880;28;20051;-68
2021/04/15 07:44:00;;;;;;;7.57;4.03;;;;;;;12.37;100.00;100607.09;5047047;28;20361;-66
2021/04/15 07:47:07;;;;;;;6.30;3.45;;;;;;;13.10;100.00;100599.97;5046988;28;20032;-66
2021/04/15 07:49:36;;;;;;;5.38;3.67;;;;;;;13.50;100.00;100601.72;5049911;28;20363;-66
2021/04/15 07:52:29;;;;;;;4.85;3.35;;;;;;;13.37;100.00;100602.00;5049559;28;20404;-67
2021/04/15 07:55:30;;;;;;;5.57;3.50;;;;;;;12.94;92.32;100605.72;5049287;28;20025;-70
2021/04/15 07:58:10;;;;;;;;;;;;;;;13.08;95.49;100596.63;5048333;28;20484;-66
2021/04/15 08:00:46;;;;;;;4.20;2.92;;;;;;;13.28;89.53;100598.38;5049390;28;19931;-67
2021/04/15 08:03:24;;;;;;;5.22;3.65;;;;;;;13.38;90.21;100570.25;5044435;28;20037;-69
2021/04/15 08:06:05;;;;;;;6.05;3.00;;;;;;;13.63;89.35;100591.75;5049585;28;20024;-68
2021/04/15 08:08:45;;;;;;;4.80;3.10;;;;;;;14.21;88.70;100585.63;5043895;28;20057;-66
2021/04/15 08:11:38;;;;;;;4.70;3.05;;;;;;;14.54;78.34;100597.53;5048754;28;20110;-66
2021/04/15 08:14:13;;;;;;;5.30;3.20;;;;;;;14.75;76.61;100595.53;5049068;28;20079;-66
2021/04/15 08:16:45;;;;;;;4.40;2.65;;;;;;;14.19;67.69;100567.34;5049355;28;20086;-66
2021/04/15 08:19:16;;;;;;;5.78;2.95;;;;;;;13.18;68.47;100593.03;5048903;28;20480;-66
2021/04/15 08:21:42;;;;;;;6.57;5.03;;;;;;;13.03;72.76;100588.28;5048767;28;20028;-67
2021/04/15 08:24:19;;;;;;;4.78;2.92;;;;;;;13.32;74.73;100589.22;5048995;28;20574;-65
2021/04/15 08:27:22;;;;;;;4.13;2.83;;;;;;;13.08;75.38;100580.84;5049398;28;20434;-66
2021/04/15 08:30:10;;;;;;;4.75;3.20;;;;;;;13.31;75.90;100579.69;5048938;28;20496;-66
2021/04/15 08:33:08;;;;;;;4.20;2.85;;;;;;;13.83;67.82;100572.38;5048513;28;20033;-66
2021/04/15 08:35:34;;;;;;;4.25;2.70;;;;;;;14.37;67.91;100576.16;5048464;28;20025;-67
2021/04/15 08:38:14;;;;;;;4.55;2.58;;;;;;;14.54;65.28;100579.06;5048972;28;20017;-65
2021/04/15 08:40:45;;;;;;;;;;;;;;;14.58;59.32;100567.28;5049324;28;20040;-69
2021/04/15 08:43:51;;;;;;;4.13;2.80;;;;;;;14.37;58.96;100576.16;5048598;28;19925;-65
2021/04/15 08:46:30;;;;;;;3.88;2.60;;;;;;;14.22;58.18;100545.16;5044493;28;20025;-66
2021/04/15 08:49:32;;;;;;;3.75;2.80;;;;;;;13.23;60.21;100568.97;5048304;28;20029;-67
2021/04/15 08:52:25;;;;;;;5.00;3.22;;;;;;;13.61;61.58;100564.75;5061769;28;20036;-67
2021/04/15 08:55:19;;;;;;;5.45;2.90;;;;;;;14.11;59.24;100527.69;5040242;28;20036;-67
2021/04/15 08:58:23;;;;;;;4.53;3.20;;;;;;;14.48;66.01;100561.16;5045281;28;20036;-67
2021/04/15 09:01:15;;;;;;;5.68;3.08;;;;;;;14.68;61.73;100554.91;5048104;28;20039;-66
2021/04/15 09:03:55;;;;;;;5.25;3.22;;;;;;;14.78;61.75;100549.56;5048461;28;20155;-65
2021/04/15 09:06:58;;;;;;;5.75;3.53;;;;;;;15.03;60.78;100545.41;5047744;28;20024;-65
2021/04/15 09:09:26;;;;;;;4.65;2.63;;;;;;;15.22;58.62;100552.38;5045035;28;20032;-68
2021/04/15 09:12:17;;;;;;;3.97;2.75;;;;;;;15.39;61.21;100550.72;5047998;28;20060;-67
2021/04/15 09:14:53;;;;;;;4.80;2.97;;;;;;;14.81;59.59;100552.72;5044898;28;20040;-65
2021/04/15 09:17:31;;;;;;;4.47;3.30;;;;;;;14.22;58.80;100524.88;5044272;28;20112;-65
2021/04/15 09:20:20;;;;;;;4.53;2.70;;;;;;;14.45;58.29;100553.56;5045849;28;20136;-66
2021/04/15 09:23:30;;;;;;;19.83;5.45;;;;;;;14.78;60.36;100552.19;5045292;28;20029;-65
2021/04/15 09:26:17;;;;;;;22.13;19.35;;;;;;;14.70;62.19;100550.28;5043446;28;20037;-65
2021/04/15 09:28:55;;;;;;;4.75;3.50;;;;;;;14.72;56.33;100540.44;5039308;28;20029;-65
2021/04/15 09:31:51;;;;;;;6.25;3.85;;;;;;;14.78;57.45;100534.56;5063300;28;20032;-65
2021/04/15 09:34:55;;;;;;;43.42;5.60;;;;;;;14.63;56.98;100536.03;5047669;28;20033;-66
2021/04/15 09:37:30;;;;;;;6.15;3.40;;;;;;;14.85;56.64;100530.38;5046132;28;20533;-65
2021/04/15 09:40:04;;;;;;;6.40;5.00;;;;;;;14.76;59.85;100502.22;5046000;28;20544;-65
2021/04/15 09:42:39;;;;;;;4.60;3.03;;;;;;;14.27;54.71;100516.53;5047519;28;20044;-67
2021/04/15 09:45:13;;;;;;;5.45;3.65;;;;;;;14.59;55.67;100516.19;5046918;28;20098;-66
2021/04/15 09:47:41;;;;;;;4.65;3.03;;;;;;;14.32;56.02;100519.59;5047286;28;20401;-67
2021/04/15 09:50:23;;;;;;;4.20;3.15;;;;;;;12.79;56.98;100486.03;5047317;28;20495;-64
2021/04/15 09:53:00;;;;;;;5.45;3.78;;;;;;;12.97;58.40;100487.91;5047038;28;20032;-65
2021/04/15 09:55:40;;;;;;;6.60;3.67;;;;;;;13.44;58.80;100510.97;5047492;28;20068;-65
2021/04/15 09:58:29;;;;;;;;;;;;;;;13.63;58.61;100508.31;5047916;28;20055;-67
2021/04/15 10:01:09;;;;;;;4.45;2.90;;;;;;;13.46;58.59;100483.56;5044058;28;19913;-68
2021/04/15 10:03:53;;;;;;;5.60;4.03;;;;;;;13.70;57.83;100498.06;5038956;28;20091;-65
2021/04/15 10:06:29;;;;;;;5.57;3.30;;;;;;;13.36;59.47;100490.59;5044777;28;20031;-65
2021/04/15 10:08:54;;;;;;;6.32;3.60;;;;;;;13.63;56.23;100503.06;5039591;28;20037;-65
2021/04/15 10:12:05;;;;;;;5.00;3.45;;;;;;;13.66;59.19;100497.50;5047316;28;20029;-66
2021/04/15 10:15:03;;;;;;;6.32;4.45;;;;;;;13.88;59.68;100482.38;5041720;28;20590;-65
2021/04/15 10:17:45;;;;;;;6.88;3.92;;;;;;;13.04;58.78;100459.25;5047406;28;20066;-67
2021/04/15 10:20:47;;;;;;;6.47;4.93;;;;;;;13.14;59.17;100491.66;5047290;28;20033;-66
2021/04/15 10:23:26;;;;;;;9.32;5.82;;;;;;;13.82;60.20;100491.69;5045851;28;20040;-66
2021/04/15 10:25:57;;;;;;;9.95;5.15;;;;;;;13.99;54.02;100447.13;5046570;28;20515;-66
2021/04/15 10:28:41;;;;;;;14.40;5.43;;;;;;;14.29;55.71;100486.44;5047126;28;20017;-66
2021/04/15 10:31:24;;;;;;;11.50;4.95;;;;;;;14.56;55.07;100455.81;5046768;28;20467;-66
2021/04/15 10:34:14;;;;;;;6.93;5.10;;;;;;;15.13;55.27;100487.28;5047146;28;20017;-66
2021/04/15 10:36:49;;;;;;;5.05;2.97;;;;;;;15.44;53.71;100483.28;5045564;28;20482;-66
2021/04/15 10:39:27;;;;;;;9.82;5.50;;;;;;;15.54;50.85;100470.81;5046517;28;20036;-66
2021/04/15 10:42:13;;;;;;;6.35;3.15;;;;;;;15.62;52.14;100463.94;5043875;28;20039;-69
2021/04/15 10:44:53;;;;;;;4.47;2.97;;;;;;;15.98;51.25;100459.44;5044521;28;20029;-67
2021/04/15 10:47:18;;;;;;;;;;;;;;;16.04;53.19;100466.75;5046858;28;20116;-71
2021/04/15 10:49:46;;;;;;;8.02;4.03;;;;;;;16.03;50.96;100463.28;5046915;28;19995;-66
2021/04/15 10:53:09;;;;;;;10.85;4.28;;;;;;;16.28;48.67;100458.94;5046830;28;20086;-68
2021/04/15 10:55:34;;;;;;;14.07;4.63;;;;;;;16.57;50.94;100463.06;5039280;28;20043;-67
2021/04/15 10:58:30;;;;;;;13.55;7.38;;;;;;;16.88;47.91;100455.41;5041336;28;20037;-67
2021/04/15 11:01:15;;;;;;;18.92;9.85;;;;;;;16.78;44.67;100452.06;5045035;28;20043;-68
2021/04/15 11:03:41;;;;;;;10.18;4.88;;;;;;;16.53;44.33;100414.06;5039739;28;20099;-66
2021/04/15 11:06:11;;;;;;;17.40;4.30;;;;;;;16.44;45.41;100436.22;5046545;28;20508;-66
2021/04/15 11:08:36;;;;;;;10.88;4.25;;;;;;;16.47;45.86;100465.00;5046808;28;20041;-68
2021/04/15 11:11:17;;;;;;;14.35;4.15;;;;;;;16.03;47.68;100460.66;5046156;28;20037;-66
2021/04/15 11:13:43;;;;;;;9.43;5.05;;;;;;;15.70;47.09;100464.06;5042642;28;20455;-68
2021/04/15 11:16:21;;;;;;;9.73;4.55;;;;;;;16.30;47.55;100461.44;5049895;28;20104;-66
2021/04/15 11:18:47;;;;;;;14.95;5.20;;;;;;;16.03;44.12;100428.06;5049024;28;20485;-66
2021/04/15 11:21:24;;;;;;;9.23;3.97;;;;;;;15.69;44.98;100463.22;5050128;28;20021;-66
2021/04/15 11:23:52;;;;;;;8.10;4.22;;;;;;;14.87;48.99;100459.78;5049974;28;20056;-66
2021/04/15 11:26:44;;;;;;;9.50;4.05;;;;;;;14.93;48.14;100434.63;5050271;28;20033;-68
2021/04/15 11:29:40;;;;;;;7.30;4.00;;;;;;;15.01;48.94;100424.13;5050506;28;20543;-66
2021/04/15 11:32:34;;;;;;;10.80;4.60;;;;;;;15.24;46.90;100463.28;5058900;28;20033;-67
2021/04/15 11:35:26;;;;;;;13.23;4.57;;;;;;;15.15;46.55;100459.75;5045607;28;20051;-67
2021/04/15 11:38:17;;;;;;;12.20;5.03;;;;;;;15.15;47.65;100459.75;5049203;28;20116;-66
2021/04/15 11:40:49;;;;;;;16.05;4.85;;;;;;;15.25;45.81;100460.50;5046490;28;20037;-67
2021/04/15 11:43:36;;;;;;;8.70;3.45;;;;;;;15.48;47.05;100425.69;5050064;28;20057;-66
2021/04/15 11:46:33;;;;;;;12.15;4.07;;;;;;;15.84;48.57;100452.91;5048491;28;20115;-67
2021/04/15 11:49:21;;;;;;;8.32;3.53;;;;;;;16.20;46.93;100447.50;5044106;28;20029;-66
2021/04/15 11:52:02;;;;;;;14.38;3.75;;;;;;;16.15;44.79;100450.63;5049768;28;20098;-67
2021/04/15 11:54:35;;;;;;;7.90;3.80;;;;;;;16.19;46.40;100417.56;5049097;28;20043;-69
2021/04/15 11:57:18;;;;;;;10.23;4.00;;;;;;;16.54;48.47;100436.91;5049662;28;20029;-66
2021/04/15 12:00:07;;;;;;;12.32;3.55;;;;;;;16.52;46.28;100438.88;5049182;28;20021;-66
2021/04/15 12:02:34;;;;;;;9.45;4.40;;;;;;;16.36;49.20;100436.16;5045935;28;20060;-67
2021/04/15 12:05:11;;;;;;;12.20;3.50;;;;;;;16.35;46.19;100435.34;5049135;28;20025;-68
2021/04/15 12:07:39;;;;;;;8.68;3.70;;;;;;;16.15;44.34;100392.44;5048877;28;20497;-66
2021/04/15 12:10:08;;;;;;;11.40;4.25;;;;;;;16.18;47.68;100418.56;5049592;28;20042;-67
2021/04/15 12:12:41;;;;;;;11.15;4.93;;;;;;;16.38;49.23;100411.22;5044638;28;20032;-67
2021/04/15 12:15:12;;;;;;;10.98;4.10;;;;;;;16.42;46.38;100422.31;5057886;28;20028;-68